createdAt,value
2023-02-17T00:01:39.240Z,95.79
2023-02-17T00:04:08.417Z,95.99
2023-02-17T00:06:37.986Z,95.85
2023-02-17T00:09:07.660Z,95.66
2023-02-17T00:11:36.899Z,95.55
2023-02-17T00:14:06.186Z,95.55
2023-02-17T00:16:35.574Z,95.41
2023-02-17T00:19:06.425Z,95.33
2023-02-17T00:21:35.996Z,95.25
2023-02-17T00:24:05.338Z,95.65
2023-02-17T00:26:34.768Z,95.42
2023-02-17T00:29:03.980Z,95.34
2023-02-17T00:31:33.390Z,94.98
2023-02-17T00:34:02.783Z,95.17
2023-02-17T00:36:32.946Z,95.00
2023-02-17T00:39:02.260Z,95.37
2023-02-17T00:41:31.587Z,95.03
2023-02-17T00:44:01.147Z,95.11
2023-02-17T00:46:30.683Z,95.24
2023-02-17T00:49:00.001Z,94.94
2023-02-17T00:51:29.322Z,95.16
2023-02-17T00:53:58.601Z,95.36
2023-02-17T00:56:28.162Z,95.11
2023-02-17T00:58:57.644Z,95.21
2023-02-17T01:01:27.100Z,94.60
2023-02-17T01:03:56.420Z,94.78
2023-02-17T01:06:28.546Z,94.87
2023-02-17T01:08:57.773Z,94.97
2023-02-17T01:11:31.130Z,94.83
2023-02-17T01:14:01.666Z,94.78
2023-02-17T01:16:35.267Z,94.86
2023-02-17T01:19:07.313Z,94.18
2023-02-17T01:21:37.132Z,94.32
2023-02-17T01:24:08.540Z,94.12
2023-02-17T01:26:39.212Z,93.87
2023-02-17T01:29:09.514Z,93.56
2023-02-17T01:31:40.185Z,93.63
2023-02-17T01:34:12.079Z,93.26
2023-02-17T01:36:41.421Z,93.32
2023-02-17T01:39:14.884Z,93.27
2023-02-17T01:41:44.853Z,93.40
2023-02-17T01:44:23.193Z,93.60
2023-02-17T01:46:53.913Z,93.30
2023-02-17T01:49:32.041Z,93.30
2023-02-17T01:52:19.918Z,93.35
2023-02-17T01:54:52.237Z,93.32
2023-02-17T01:57:24.823Z,93.17
2023-02-17T01:59:53.540Z,93.17
2023-02-17T02:02:23.597Z,93.23
2023-02-17T02:04:54.194Z,93.37
2023-02-17T02:07:26.652Z,93.34
2023-02-17T02:09:57.486Z,93.17
2023-02-17T02:12:36.349Z,93.28
2023-02-17T02:15:10.770Z,93.30
2023-02-17T02:18:04.236Z,93.57
2023-02-17T02:20:47.438Z,93.25
2023-02-17T02:23:44.441Z,93.27
2023-02-17T02:26:42.766Z,93.39
2023-02-17T02:29:17.991Z,93.25
2023-02-17T02:32:02.342Z,93.34
2023-02-17T02:34:49.881Z,93.29
2023-02-17T02:37:31.686Z,93.56
2023-02-17T02:40:04.520Z,93.63
2023-02-17T02:42:36.260Z,93.36
2023-02-17T02:45:10.215Z,93.40
2023-02-17T02:47:56.671Z,93.24
2023-02-17T02:50:48.958Z,93.12
2023-02-17T02:53:24.512Z,93.10
2023-02-17T02:56:10.687Z,93.12
2023-02-17T02:58:52.178Z,93.28
2023-02-17T03:01:30.658Z,93.08
2023-02-17T03:04:14.924Z,93.22
2023-02-17T03:06:55.701Z,93.01
2023-02-17T03:09:27.174Z,92.96
2023-02-17T03:11:57.808Z,92.99
2023-02-17T03:14:28.258Z,93.11
2023-02-17T03:16:58.620Z,93.00
2023-02-17T03:19:29.910Z,93.09
2023-02-17T03:22:02.290Z,92.98
2023-02-17T03:24:34.778Z,93.13
2023-02-17T03:27:04.173Z,93.04
2023-02-17T03:29:34.869Z,93.34
2023-02-17T03:32:04.309Z,93.27
2023-02-17T03:34:35.768Z,93.36
2023-02-17T03:37:05.076Z,93.38
2023-02-17T03:39:34.702Z,93.12
2023-02-17T03:42:04.355Z,92.96
2023-02-17T03:44:33.574Z,93.03
2023-02-17T03:47:02.902Z,93.29
2023-02-17T03:49:32.353Z,93.15
2023-02-17T03:52:01.553Z,93.31
2023-02-17T03:54:30.967Z,93.25
2023-02-17T03:57:01.217Z,93.40
2023-02-17T03:59:30.518Z,93.29
2023-02-17T04:01:59.794Z,93.46
2023-02-17T04:04:29.131Z,93.53
2023-02-17T04:06:59.952Z,93.55
2023-02-17T04:09:29.428Z,93.76
2023-02-17T04:11:58.731Z,93.43
2023-02-17T04:14:27.955Z,93.31
2023-02-17T04:16:57.184Z,93.35
2023-02-17T04:19:26.870Z,93.48
2023-02-17T04:21:56.083Z,93.69
2023-02-17T04:24:25.339Z,93.50
2023-02-17T04:26:54.868Z,93.62
2023-02-17T04:29:24.154Z,93.71
2023-02-17T04:31:53.998Z,93.49
2023-02-17T04:34:23.462Z,93.40
2023-02-17T04:36:52.865Z,93.37
2023-02-17T04:39:22.590Z,93.57
2023-02-17T04:41:51.849Z,93.64
2023-02-17T04:44:21.097Z,93.81
2023-02-17T04:46:50.329Z,93.51
2023-02-17T04:49:19.580Z,93.59
2023-02-17T04:51:48.782Z,94.23
2023-02-17T04:54:18.070Z,95.03
2023-02-17T04:56:47.791Z,95.23
2023-02-17T04:59:17.277Z,95.76
2023-02-17T05:01:46.882Z,96.12
2023-02-17T05:04:16.430Z,96.57
2023-02-17T05:06:45.775Z,97.24
2023-02-17T05:09:15.297Z,97.64
2023-02-17T05:11:44.933Z,97.76
2023-02-17T05:14:14.166Z,97.71
2023-02-17T05:16:43.631Z,97.91
2023-02-17T05:19:13.407Z,97.83
2023-02-17T05:21:42.909Z,97.90
2023-02-17T05:24:12.119Z,97.86
2023-02-17T05:26:41.387Z,97.76
2023-02-17T05:29:10.614Z,97.72
2023-02-17T05:31:39.980Z,97.89
2023-02-17T05:34:09.377Z,97.97
2023-02-17T05:36:38.978Z,97.93
2023-02-17T05:39:09.206Z,97.76
2023-02-17T05:41:38.611Z,97.76
2023-02-17T05:44:07.804Z,97.78
2023-02-17T05:46:37.351Z,97.81
2023-02-17T05:49:06.589Z,97.75
2023-02-17T05:51:36.231Z,97.56
2023-02-17T05:54:05.559Z,97.61
2023-02-17T05:56:35.100Z,97.57
2023-02-17T05:59:04.489Z,97.71
2023-02-17T06:01:35.198Z,97.66
2023-02-17T06:04:05.732Z,97.76
2023-02-17T06:06:35.308Z,97.72
2023-02-17T06:09:05.210Z,97.67
2023-02-17T06:11:34.737Z,97.69
2023-02-17T06:14:04.116Z,97.62
2023-02-17T06:16:33.530Z,97.59
2023-02-17T06:19:04.701Z,97.66
2023-02-17T06:21:33.946Z,97.60
2023-02-17T06:24:03.462Z,97.64
2023-02-17T06:26:32.715Z,97.58
2023-02-17T06:29:02.116Z,97.63
2023-02-17T06:31:31.644Z,97.52
2023-02-17T06:34:00.964Z,97.64
2023-02-17T06:36:30.384Z,97.75
2023-02-17T06:38:59.647Z,97.76
2023-02-17T06:41:29.334Z,97.51
2023-02-17T06:43:58.528Z,97.42
2023-02-17T06:46:28.162Z,97.44
2023-02-17T06:48:57.554Z,97.12
2023-02-17T06:51:27.088Z,97.36
2023-02-17T06:53:56.781Z,97.31
2023-02-17T06:56:26.861Z,97.10
2023-02-17T06:58:56.319Z,97.06
2023-02-17T07:01:27.324Z,97.00
2023-02-17T07:03:57.694Z,96.69
2023-02-17T07:06:27.498Z,96.76
2023-02-17T07:08:57.136Z,96.67
2023-02-17T07:11:28.124Z,96.86
2023-02-17T07:13:58.069Z,96.87
2023-02-17T07:16:27.578Z,96.60
2023-02-17T07:18:57.436Z,96.48
2023-02-17T07:21:26.931Z,96.27
2023-02-17T07:23:56.287Z,96.06
2023-02-17T07:26:25.686Z,96.01
2023-02-17T07:28:55.436Z,95.99
2023-02-17T07:31:25.031Z,95.72
2023-02-17T07:33:54.486Z,95.52
2023-02-17T07:36:23.850Z,95.63
2023-02-17T07:39:10.024Z,95.66
2023-02-17T07:41:39.751Z,95.66
2023-02-17T07:44:12.391Z,95.49
2023-02-17T07:46:41.614Z,95.16
2023-02-17T07:49:11.057Z,95.04
2023-02-17T07:51:40.280Z,94.77
2023-02-17T07:54:10.159Z,94.71
2023-02-17T07:56:39.636Z,94.58
2023-02-17T07:59:13.292Z,94.30
2023-02-17T08:01:42.512Z,94.37
2023-02-17T08:04:12.121Z,94.09
2023-02-17T08:06:41.378Z,93.84
2023-02-17T08:09:30.441Z,93.80
2023-02-17T08:12:17.863Z,93.43
2023-02-17T08:14:47.454Z,93.10
2023-02-17T08:17:16.675Z,93.08
2023-02-17T08:19:49.036Z,92.73
2023-02-17T08:22:18.238Z,92.86
2023-02-17T08:24:47.754Z,92.66
2023-02-17T08:27:17.665Z,92.80
2023-02-17T08:29:47.782Z,92.59
2023-02-17T08:32:17.756Z,92.62
2023-02-17T08:34:47.421Z,92.71
2023-02-17T08:37:16.651Z,92.41
2023-02-17T08:39:45.911Z,92.38
2023-02-17T08:42:15.212Z,92.23
2023-02-17T08:44:44.476Z,92.12
2023-02-17T08:47:13.871Z,91.80
2023-02-17T08:49:43.248Z,91.87
2023-02-17T08:52:12.489Z,91.55
2023-02-17T08:54:41.935Z,91.33
2023-02-17T08:57:11.166Z,91.09
2023-02-17T08:59:40.676Z,91.33
2023-02-17T09:02:11.265Z,91.28
2023-02-17T09:04:41.348Z,91.28
2023-02-17T09:07:12.669Z,91.33
2023-02-17T09:09:42.696Z,91.02
2023-02-17T09:12:11.968Z,90.82
2023-02-17T09:14:41.598Z,90.96
2023-02-17T09:17:11.498Z,90.64
2023-02-17T09:19:41.181Z,90.82
2023-02-17T09:22:17.525Z,90.62
2023-02-17T09:24:42.057Z,90.75
2023-02-17T09:27:12.093Z,90.45
2023-02-17T09:29:41.354Z,90.45
2023-02-17T09:32:11.293Z,90.72
2023-02-17T09:34:43.061Z,90.68
2023-02-17T09:37:13.656Z,90.64
2023-02-17T09:39:42.931Z,90.45
2023-02-17T09:42:18.186Z,90.24
2023-02-17T09:44:51.117Z,89.76
2023-02-17T09:47:26.206Z,90.02
2023-02-17T09:50:10.902Z,89.54
2023-02-17T09:52:58.186Z,89.61
2023-02-17T09:55:42.694Z,89.36
2023-02-17T09:58:20.568Z,89.41
2023-02-17T10:00:55.823Z,89.65
2023-02-17T10:03:35.832Z,89.87
2023-02-17T10:06:26.560Z,89.58
2023-02-17T10:08:59.134Z,88.88
2023-02-17T10:11:29.205Z,88.95
2023-02-17T10:14:04.654Z,88.63
2023-02-17T10:16:46.415Z,88.57
2023-02-17T10:19:19.134Z,88.60
2023-02-17T10:22:06.783Z,88.37
2023-02-17T10:24:36.425Z,88.57
2023-02-17T10:27:30.296Z,88.48
2023-02-17T10:30:17.372Z,88.79
2023-02-17T10:32:56.230Z,89.09
2023-02-17T10:35:28.850Z,88.85
2023-02-17T10:38:02.079Z,88.64
2023-02-17T10:40:31.492Z,88.59
2023-02-17T10:43:06.372Z,88.56
2023-02-17T10:45:45.180Z,88.85
2023-02-17T10:48:16.985Z,88.94
2023-02-17T10:50:47.085Z,89.25
2023-02-17T10:53:20.148Z,89.35
2023-02-17T10:56:07.986Z,89.07
2023-02-17T10:58:52.955Z,88.64
2023-02-17T11:01:24.588Z,88.37
2023-02-17T11:04:05.597Z,88.15
2023-02-17T11:06:40.888Z,87.60
2023-02-17T11:09:27.149Z,87.23
2023-02-17T11:12:18.079Z,87.34
2023-02-17T11:14:50.531Z,86.61
2023-02-17T11:17:28.923Z,86.47
2023-02-17T11:20:02.157Z,86.11
2023-02-17T11:22:45.162Z,86.32
2023-02-17T11:25:29.376Z,86.34
2023-02-17T11:28:01.258Z,86.54
2023-02-17T11:30:32.275Z,86.67
2023-02-17T11:33:15.864Z,86.91
2023-02-17T11:35:48.235Z,86.99
2023-02-17T11:38:21.308Z,87.14
2023-02-17T11:41:06.871Z,87.65
2023-02-17T11:43:37.824Z,87.83
2023-02-17T11:46:19.158Z,87.88
2023-02-17T11:49:00.670Z,87.88
2023-02-17T11:51:36.053Z,88.09
2023-02-17T11:54:23.899Z,87.81
2023-02-17T11:57:17.443Z,87.81
2023-02-17T12:00:12.950Z,87.61
2023-02-17T12:02:53.928Z,87.64
2023-02-17T12:05:38.496Z,87.87
2023-02-17T12:08:23.124Z,87.85
2023-02-17T12:11:07.524Z,87.79
2023-02-17T12:14:07.945Z,87.82
2023-02-17T12:16:59.913Z,87.93
2023-02-17T12:19:56.794Z,88.00
2023-02-17T12:22:38.244Z,88.17
2023-02-17T12:25:38.343Z,88.10
2023-02-17T12:28:10.863Z,87.81
2023-02-17T12:30:51.707Z,87.95
2023-02-17T12:33:43.703Z,88.03
2023-02-17T12:36:17.994Z,88.00
2023-02-17T12:39:05.679Z,87.83
2023-02-17T12:41:44.101Z,87.81
2023-02-17T12:44:31.169Z,87.85
2023-02-17T12:47:03.576Z,88.12
2023-02-17T12:49:38.920Z,88.17
2023-02-17T12:52:27.428Z,87.83
2023-02-17T12:55:15.159Z,88.39
2023-02-17T12:57:47.689Z,88.23
2023-02-17T13:00:29.886Z,87.92
2023-02-17T13:03:00.588Z,87.72
2023-02-17T13:05:41.988Z,87.94
2023-02-17T13:08:14.400Z,88.12
2023-02-17T13:10:43.918Z,88.00
2023-02-17T13:13:30.819Z,88.44
2023-02-17T13:16:14.474Z,88.40
2023-02-17T13:18:50.410Z,88.50
2023-02-17T13:21:27.736Z,88.24
2023-02-17T13:24:02.569Z,88.46
2023-02-17T13:26:36.943Z,88.64
2023-02-17T13:29:20.864Z,88.56
2023-02-17T13:31:58.817Z,88.78
2023-02-17T13:34:39.387Z,88.64
2023-02-17T13:37:35.752Z,88.60
2023-02-17T13:40:20.143Z,88.33
2023-02-17T13:42:57.535Z,88.53
2023-02-17T13:45:55.474Z,88.62
2023-02-17T13:48:27.830Z,88.33
2023-02-17T13:51:00.467Z,88.37
2023-02-17T13:53:34.998Z,88.06
2023-02-17T13:56:08.635Z,87.81
2023-02-17T13:58:41.151Z,87.76
2023-02-17T14:01:16.584Z,87.47
2023-02-17T14:03:51.664Z,86.99
2023-02-17T14:06:33.393Z,86.79
2023-02-17T14:09:13.914Z,86.90
2023-02-17T14:11:43.244Z,86.38
2023-02-17T14:14:13.055Z,86.22
2023-02-17T14:16:45.429Z,86.27
2023-02-17T14:19:19.728Z,86.12
2023-02-17T14:22:01.453Z,86.29
2023-02-17T14:24:36.154Z,86.63
2023-02-17T14:27:11.920Z,86.31
2023-02-17T14:29:50.787Z,86.25
2023-02-17T14:32:38.360Z,85.91
2023-02-17T14:35:09.884Z,85.63
2023-02-17T14:37:39.793Z,85.53
2023-02-17T14:40:18.043Z,85.46
2023-02-17T14:42:48.234Z,85.51
2023-02-17T14:45:18.937Z,85.58
2023-02-17T14:47:48.790Z,85.60
2023-02-17T14:50:18.093Z,85.99
2023-02-17T14:52:49.198Z,86.64
2023-02-17T14:55:21.970Z,86.29
2023-02-17T14:57:51.286Z,85.99
2023-02-17T15:00:20.939Z,85.99
2023-02-17T15:02:51.350Z,86.09
2023-02-17T15:05:20.872Z,86.44
2023-02-17T15:07:50.477Z,86.58
2023-02-17T15:10:27.794Z,87.10
2023-02-17T15:12:57.988Z,87.44
2023-02-17T15:15:27.253Z,87.71
2023-02-17T15:17:56.457Z,87.70
2023-02-17T15:20:25.997Z,87.93
2023-02-17T15:22:56.987Z,88.18
2023-02-17T15:25:26.283Z,88.48
2023-02-17T15:27:55.541Z,88.45
2023-02-17T15:30:27.485Z,88.61
2023-02-17T15:32:55.957Z,88.54
2023-02-17T15:35:27.323Z,88.76
2023-02-17T15:37:57.119Z,88.81
2023-02-17T15:40:28.622Z,88.91
2023-02-17T15:43:01.111Z,88.98
2023-02-17T15:45:30.516Z,88.67
2023-02-17T15:48:04.980Z,88.66
2023-02-17T15:50:34.243Z,88.36
2023-02-17T15:53:03.822Z,88.61
2023-02-17T15:55:34.958Z,88.71
2023-02-17T15:58:05.707Z,88.92
2023-02-17T16:00:36.557Z,89.13
2023-02-17T16:03:06.017Z,89.27
2023-02-17T16:05:35.352Z,89.38
2023-02-17T16:08:04.726Z,89.51
2023-02-17T16:10:34.696Z,89.61
2023-02-17T16:13:04.415Z,89.53
2023-02-17T16:15:34.139Z,89.93
2023-02-17T16:18:03.481Z,89.93
2023-02-17T16:20:35.045Z,89.80
2023-02-17T16:23:04.650Z,89.85
2023-02-17T16:25:35.521Z,89.82
2023-02-17T16:28:06.676Z,90.01
2023-02-17T16:30:36.771Z,90.11
2023-02-17T16:33:07.076Z,90.12
2023-02-17T16:35:36.667Z,90.22
2023-02-17T16:38:23.871Z,90.17
2023-02-17T16:40:54.845Z,90.35
2023-02-17T16:43:30.971Z,90.41
2023-02-17T16:46:02.307Z,90.43
2023-02-17T16:48:35.240Z,90.51
2023-02-17T16:51:04.913Z,90.61
2023-02-17T16:53:34.534Z,90.88
2023-02-17T16:56:07.536Z,90.83
2023-02-17T16:58:37.340Z,90.95
2023-02-17T17:01:09.223Z,90.97
2023-02-17T17:03:39.480Z,91.07
2023-02-17T17:06:20.335Z,91.09
2023-02-17T17:08:50.009Z,91.23
2023-02-17T17:11:22.365Z,91.62
2023-02-17T17:13:51.565Z,91.67
2023-02-17T17:16:24.289Z,91.79
2023-02-17T17:18:54.085Z,91.86
2023-02-17T17:21:23.533Z,91.98
2023-02-17T17:23:52.885Z,92.10
2023-02-17T17:26:33.274Z,92.20
2023-02-17T17:29:03.074Z,92.11
2023-02-17T17:31:32.407Z,92.45
2023-02-17T17:34:01.815Z,92.62
2023-02-17T17:36:39.438Z,92.48
2023-02-17T17:39:11.670Z,92.46
2023-02-17T17:41:40.896Z,92.52
2023-02-17T17:44:10.585Z,92.47
2023-02-17T17:46:40.383Z,92.50
2023-02-17T17:49:12.024Z,92.41
2023-02-17T17:51:41.865Z,92.40
2023-02-17T17:54:11.280Z,92.57
2023-02-17T17:56:45.106Z,92.55
2023-02-17T17:59:15.109Z,92.47
2023-02-17T18:01:45.834Z,92.63
2023-02-17T18:04:15.410Z,92.69
2023-02-17T18:06:50.417Z,92.93
2023-02-17T18:09:31.626Z,92.98
2023-02-17T18:11:54.453Z,93.12
2023-02-17T18:14:23.729Z,93.28
2023-02-17T18:16:52.984Z,93.13
2023-02-17T18:19:23.539Z,93.16
2023-02-17T18:21:52.971Z,93.21
2023-02-17T18:24:22.222Z,93.23
2023-02-17T18:26:52.319Z,93.29
2023-02-17T18:29:21.921Z,93.14
2023-02-17T18:31:51.368Z,93.30
2023-02-17T18:34:20.632Z,93.41
2023-02-17T18:36:50.288Z,93.31
2023-02-17T18:39:19.524Z,93.28
2023-02-17T18:41:49.232Z,93.33
2023-02-17T18:44:18.909Z,93.32
2023-02-17T18:46:48.395Z,93.43
2023-02-17T18:49:17.842Z,93.43
2023-02-17T18:51:47.660Z,93.59
2023-02-17T18:54:17.168Z,93.93
2023-02-17T18:56:46.763Z,94.06
2023-02-17T18:59:16.152Z,94.43
2023-02-17T19:01:45.649Z,94.43
2023-02-17T19:04:15.451Z,94.39
2023-02-17T19:06:44.680Z,94.58
2023-02-17T19:09:14.307Z,94.75
2023-02-17T19:11:43.572Z,94.56
2023-02-17T19:14:13.314Z,94.66
2023-02-17T19:16:42.719Z,94.83
2023-02-17T19:19:12.328Z,94.97
2023-02-17T19:21:41.540Z,95.03
2023-02-17T19:24:10.882Z,95.16
2023-02-17T19:26:40.286Z,95.12
2023-02-17T19:29:09.821Z,95.39
2023-02-17T19:31:39.278Z,95.57
2023-02-17T19:34:08.587Z,95.64
2023-02-17T19:36:37.872Z,95.69
2023-02-17T19:39:07.701Z,95.96
2023-02-17T19:41:36.909Z,95.97
2023-02-17T19:44:06.471Z,95.74
2023-02-17T19:46:35.728Z,95.99
2023-02-17T19:49:05.705Z,95.90
2023-02-17T19:51:35.357Z,95.89
2023-02-17T19:54:04.995Z,96.04
2023-02-17T19:56:36.408Z,96.07
2023-02-17T19:59:06.388Z,96.00
2023-02-17T20:01:36.230Z,95.94
2023-02-17T20:04:06.496Z,95.88
2023-02-17T20:06:40.800Z,95.80
2023-02-17T20:09:18.731Z,95.89
2023-02-17T20:11:49.372Z,95.87
2023-02-17T20:14:18.947Z,96.07
2023-02-17T20:16:49.888Z,96.17
2023-02-17T20:19:19.386Z,96.47
2023-02-17T20:21:49.032Z,96.45
2023-02-17T20:24:18.610Z,96.93
2023-02-17T20:26:51.142Z,96.89
2023-02-17T20:29:20.607Z,97.00
2023-02-17T20:31:50.408Z,96.93
2023-02-17T20:34:34.880Z,97.11
2023-02-17T20:37:04.382Z,97.12
2023-02-17T20:39:36.031Z,97.01
2023-02-17T20:42:10.070Z,97.17
2023-02-17T20:44:39.891Z,97.16
2023-02-17T20:47:09.135Z,97.25
2023-02-17T20:49:38.416Z,97.33
2023-02-17T20:52:07.934Z,97.39
2023-02-17T20:54:39.455Z,97.33
2023-02-17T20:57:16.152Z,97.35
2023-02-17T20:59:45.788Z,97.40
2023-02-17T21:02:15.386Z,97.57
2023-02-17T21:04:44.620Z,97.85
2023-02-17T21:07:13.875Z,97.72
2023-02-17T21:09:43.125Z,97.78
2023-02-17T21:12:12.417Z,97.83
2023-02-17T21:14:41.758Z,97.89
2023-02-17T21:17:11.073Z,97.88
2023-02-17T21:19:40.691Z,97.92
2023-02-17T21:22:10.036Z,97.84
2023-02-17T21:24:39.340Z,97.79
2023-02-17T21:27:08.576Z,98.08
2023-02-17T21:29:37.987Z,98.22
2023-02-17T21:32:07.408Z,98.32
2023-02-17T21:34:38.706Z,98.65
2023-02-17T21:37:11.748Z,98.48
2023-02-17T21:39:41.266Z,98.83
2023-02-17T21:42:10.573Z,98.81
2023-02-17T21:44:52.378Z,98.78
2023-02-17T21:47:22.378Z,98.78
2023-02-17T21:49:54.392Z,99.01
2023-02-17T21:52:23.795Z,99.24
2023-02-17T21:54:57.414Z,99.26
2023-02-17T21:57:27.410Z,99.49
2023-02-17T21:59:58.361Z,99.54
2023-02-17T22:02:27.953Z,99.59
2023-02-17T22:04:57.715Z,99.63
2023-02-17T22:07:26.918Z,99.50
2023-02-17T22:09:57.127Z,99.63
2023-02-17T22:12:29.036Z,99.64
2023-02-17T22:14:59.952Z,99.65
2023-02-17T22:17:29.765Z,99.61
2023-02-17T22:20:00.503Z,99.59
2023-02-17T22:22:29.731Z,99.63
2023-02-17T22:25:01.773Z,99.50
2023-02-17T22:27:30.996Z,99.48
2023-02-17T22:30:02.116Z,99.47
2023-02-17T22:32:31.946Z,99.46
2023-02-17T22:35:01.443Z,99.21
2023-02-17T22:37:30.651Z,99.33
2023-02-17T22:40:00.230Z,99.39
2023-02-17T22:42:29.711Z,99.33
2023-02-17T22:44:59.655Z,99.29
2023-02-17T22:47:28.884Z,99.35
2023-02-17T22:49:58.888Z,99.22
2023-02-17T22:52:28.088Z,99.22
2023-02-17T22:54:57.728Z,99.27
2023-02-17T22:57:27.191Z,99.54
2023-02-17T22:59:56.754Z,99.46
2023-02-17T23:02:26.467Z,99.43
2023-02-17T23:04:55.968Z,99.61
2023-02-17T23:07:25.340Z,99.55
2023-02-17T23:09:54.591Z,99.33
2023-02-17T23:12:25.923Z,99.21
2023-02-17T23:14:55.143Z,99.10
2023-02-17T23:17:24.373Z,99.09
2023-02-17T23:19:53.604Z,99.23
2023-02-17T23:22:22.841Z,99.24
2023-02-17T23:24:52.214Z,99.23
2023-02-17T23:27:21.448Z,99.21
2023-02-17T23:29:50.724Z,99.13
2023-02-17T23:32:20.306Z,99.13
2023-02-17T23:34:49.890Z,99.17
2023-02-17T23:37:19.133Z,99.28
2023-02-17T23:39:48.738Z,99.22
2023-02-17T23:42:17.997Z,99.27
2023-02-17T23:44:47.258Z,99.21
2023-02-17T23:47:16.496Z,99.35
2023-02-17T23:49:45.759Z,99.31
2023-02-17T23:52:15.469Z,99.34
2023-02-17T23:54:44.849Z,99.28
2023-02-17T23:57:14.567Z,99.33
2023-02-17T23:59:43.885Z,99.34
